Time,TemperatureF,DewpointF,PressureIn,WindDirection,WindDirectionDegrees,WindSpeedMPH,WindSpeedGustMPH,Humidity,HourlyPrecipIn,Conditions,Clouds,dailyrainin,SoftwareType,DateUTC
2013-07-11 00:00:00,84.0,72.0,-100.00,NE,53,7.0,-999.0,68,0.00,,,0.00,,2013-07-11 05:00:00,
2013-07-11 00:43:00,84.0,72.0,-100.00,NE,53,7.0,-999.0,68,0.00,,,0.00,,2013-07-11 05:43:00,
2013-07-11 00:52:00,84.0,72.0,-100.00,NE,53,7.0,-999.0,68,0.00,,,0.00,,2013-07-11 05:52:00,
2013-07-11 01:00:00,80.0,72.0,-100.00,SSE,157,11.0,-999.0,78,0.00,,,0.00,,2013-07-11 06:00:00,
2013-07-11 01:43:00,80.0,72.0,-100.00,SSE,157,11.0,-999.0,78,0.00,,,0.00,,2013-07-11 06:43:00,
2013-07-11 01:53:00,80.0,72.0,-100.00,SSE,157,11.0,-999.0,78,0.00,,,0.00,,2013-07-11 06:53:00,
2013-07-11 02:00:00,77.0,73.0,-100.00,SE,126,6.0,-999.0,87,0.00,,,0.00,,2013-07-11 07:00:00,
2013-07-11 02:45:00,77.0,73.0,-100.00,SE,126,6.0,-999.0,87,0.00,,,0.00,,2013-07-11 07:45:00,
2013-07-11 02:53:00,77.0,73.0,-100.00,SE,126,6.0,-999.0,87,0.00,,,0.00,,2013-07-11 07:53:00,
2013-07-11 03:00:00,75.0,73.0,-100.00,ENE,66,3.0,-999.0,91,0.00,,,0.00,,2013-07-11 08:00:00,
2013-07-11 03:43:00,75.0,73.0,-100.00,ENE,66,3.0,-999.0,91,0.00,,,0.00,,2013-07-11 08:43:00,
2013-07-11 03:53:00,75.0,73.0,-100.00,ENE,66,3.0,-999.0,91,0.00,,,0.00,,2013-07-11 08:53:00,
2013-07-11 04:00:00,74.0,72.0,-100.00,South,178,2.0,-999.0,93,0.00,,,0.00,,2013-07-11 09:00:00,
2013-07-11 04:43:00,74.0,72.0,-100.00,South,178,2.0,-999.0,93,0.00,,,0.00,,2013-07-11 09:43:00,
2013-07-11 04:53:00,74.0,72.0,-100.00,South,178,2.0,-999.0,93,0.00,,,0.00,,2013-07-11 09:53:00,
2013-07-11 05:00:00,75.0,73.0,-100.00,North,6,4.0,-999.0,94,0.00,,,0.00,,2013-07-11 10:00:00,
2013-07-11 05:43:00,75.0,73.0,-100.00,North,6,4.0,-999.0,94,0.00,,,0.00,,2013-07-11 10:43:00,
2013-07-11 05:52:00,75.0,73.0,-100.00,North,6,4.0,-999.0,94,0.00,,,0.00,,2013-07-11 10:52:00,
2013-07-11 06:00:00,74.0,73.0,-100.00,NNE,20,5.0,-999.0,96,0.00,,,0.00,,2013-07-11 11:00:00,
2013-07-11 06:43:00,74.0,73.0,-100.00,NNE,20,5.0,-999.0,96,0.00,,,0.00,,2013-07-11 11:43:00,
2013-07-11 06:53:00,74.0,73.0,-100.00,NNE,20,5.0,-999.0,96,0.00,,,0.00,,2013-07-11 11:53:00,
2013-07-11 07:00:00,75.0,73.0,-100.00,NNE,15,3.0,-999.0,96,0.00,,,0.00,,2013-07-11 12:00:00,
2013-07-11 07:43:00,75.0,73.0,-100.00,NNE,15,3.0,-999.0,96,0.00,,,0.00,,2013-07-11 12:43:00,
2013-07-11 07:57:00,75.0,73.0,-100.00,NNE,15,3.0,-999.0,96,0.00,,,0.00,,2013-07-11 12:57:00,
2013-07-11 08:00:00,75.0,73.0,-100.00,WSW,247,0.0,-999.0,94,0.00,,,0.00,,2013-07-11 13:00:00,
2013-07-11 08:47:00,75.0,73.0,-100.00,WSW,247,0.0,-999.0,94,0.00,,,0.00,,2013-07-11 13:47:00,
2013-07-11 08:54:00,75.0,73.0,-100.00,WSW,247,0.0,-999.0,94,0.00,,,0.00,,2013-07-11 13:54:00,
2013-07-11 09:00:00,80.0,74.0,-100.00,ENE,62,2.0,-999.0,82,0.00,,,0.00,,2013-07-11 14:00:00,
2013-07-11 09:55:00,80.0,74.0,-100.00,ENE,62,2.0,-999.0,82,0.00,,,0.00,,2013-07-11 14:55:00,
2013-07-11 10:00:00,84.0,74.0,-100.00,North,1,2.0,-999.0,73,0.00,,,0.00,,2013-07-11 15:00:00,
2013-07-11 10:48:00,84.0,74.0,-100.00,North,1,2.0,-999.0,73,0.00,,,0.00,,2013-07-11 15:48:00,
2013-07-11 10:58:00,84.0,74.0,-100.00,North,1,2.0,-999.0,73,0.00,,,0.00,,2013-07-11 15:58:00,
2013-07-11 11:00:00,88.0,74.0,-100.00,NW,305,1.0,-999.0,64,0.00,,,0.00,,2013-07-11 16:00:00,
2013-07-11 11:49:00,88.0,74.0,-100.00,NW,305,1.0,-999.0,64,0.00,,,0.00,,2013-07-11 16:49:00,
2013-07-11 11:56:00,88.0,74.0,-100.00,NW,305,1.0,-999.0,64,0.00,,,0.00,,2013-07-11 16:56:00,
2013-07-11 12:00:00,89.0,74.0,-100.00,NNE,22,4.0,-999.0,61,0.00,,,0.00,,2013-07-11 17:00:00,
2013-07-11 12:55:00,89.0,74.0,-100.00,NNE,22,4.0,-999.0,61,0.00,,,0.00,,2013-07-11 17:55:00,
2013-07-11 13:00:00,92.0,74.0,-100.00,NNE,30,4.0,-999.0,55,0.00,,,0.00,,2013-07-11 18:00:00,
2013-07-11 13:48:00,92.0,74.0,-100.00,NNE,30,4.0,-999.0,55,0.00,,,0.00,,2013-07-11 18:48:00,
2013-07-11 13:56:00,92.0,74.0,-100.00,NNE,30,4.0,-999.0,55,0.00,,,0.00,,2013-07-11 18:56:00,
2013-07-11 19:00:00,79.0,75.0,-100.00,SSE,152,3.0,-999.0,86,0.00,,,0.06,,2013-07-12 00:00:00,
2013-07-11 19:46:00,79.0,75.0,-100.00,SSE,152,3.0,-999.0,86,0.00,,,0.06,,2013-07-12 00:46:00,
2013-07-11 19:58:00,79.0,75.0,-100.00,SSE,152,3.0,-999.0,86,0.00,,,0.06,,2013-07-12 00:58:00,
2013-07-11 20:00:00,80.0,-99.9,-100.00,North,-999,-999.0,-999.0,-999,0.00,,,0.06,,2013-07-12 01:00:00,
2013-07-11 20:50:00,80.0,-99.9,-100.00,North,-999,-999.0,-999.0,-999,0.00,,,0.06,,2013-07-12 01:50:00,
2013-07-11 20:57:00,80.0,-99.9,-100.00,North,-999,-999.0,-999.0,-999,0.00,,,0.06,,2013-07-12 01:57:00,
2013-07-11 22:00:00,77.0,75.0,-100.00,NNE,20,0.0,-999.0,92,0.00,,,0.06,,2013-07-12 03:00:00,
2013-07-11 22:46:00,77.0,75.0,-100.00,NNE,20,0.0,-999.0,92,0.00,,,0.06,,2013-07-12 03:46:00,
2013-07-11 22:56:00,77.0,75.0,-100.00,NNE,20,0.0,-999.0,92,0.00,,,0.06,,2013-07-12 03:56:00,
2013-07-11 23:00:00,77.0,75.0,-100.00,North,9,2.0,-999.0,92,0.00,,,0.06,,2013-07-12 04:00:00,
2013-07-11 23:43:00,77.0,75.0,-100.00,North,9,2.0,-999.0,92,0.00,,,0.06,,2013-07-12 04:43:00,
2013-07-11 23:53:00,77.0,75.0,-100.00,North,9,2.0,-999.0,92,0.00,,,0.06,,2013-07-12 04:53:00,